sensor_id;sensor_type;location;lat;lon;timestamp;P1;durP1;ratioP1;P2;durP2;ratioP2
54935;SDS011;40838;50.676;7.838;2022-11-15T00:01:14;12.80;;;9.38;;
54935;SDS011;40838;50.676;7.838;2022-11-15T00:04:02;17.33;;;9.38;;
54935;SDS011;40838;50.676;7.838;2022-11-15T00:06:47;15.82;;;8.85;;
54935;SDS011;40838;50.676;7.838;2022-11-15T00:09:33;14.73;;;8.60;;
54935;SDS011;40838;50.676;7.838;2022-11-15T00:12:18;11.00;;;7.38;;
54935;SDS011;40838;50.676;7.838;2022-11-15T00:15:05;10.98;;;7.25;;
54935;SDS011;40838;50.676;7.838;2022-11-15T00:17:52;9.20;;;6.35;;
54935;SDS011;40838;50.676;7.838;2022-11-15T00:20:37;12.05;;;6.70;;
54935;SDS011;40838;50.676;7.838;2022-11-15T00:23:23;8.52;;;6.57;;
54935;SDS011;40838;50.676;7.838;2022-11-15T00:26:10;16.27;;;7.00;;
54935;SDS011;40838;50.676;7.838;2022-11-15T00:28:57;8.93;;;6.38;;
54935;SDS011;40838;50.676;7.838;2022-11-15T00:31:44;7.40;;;5.53;;
54935;SDS011;40838;50.676;7.838;2022-11-15T00:34:29;13.75;;;6.53;;
54935;SDS011;40838;50.676;7.838;2022-11-15T00:37:15;9.02;;;6.40;;
54935;SDS011;40838;50.676;7.838;2022-11-15T00:40:00;8.32;;;6.30;;
54935;SDS011;40838;50.676;7.838;2022-11-15T00:42:45;13.73;;;7.05;;
54935;SDS011;40838;50.676;7.838;2022-11-15T00:45:31;10.25;;;6.65;;
54935;SDS011;40838;50.676;7.838;2022-11-15T00:48:18;10.18;;;6.78;;
54935;SDS011;40838;50.676;7.838;2022-11-15T00:51:03;11.30;;;7.03;;
54935;SDS011;40838;50.676;7.838;2022-11-15T00:53:49;10.23;;;6.85;;
54935;SDS011;40838;50.676;7.838;2022-11-15T00:56:34;10.80;;;7.70;;
54935;SDS011;40838;50.676;7.838;2022-11-15T00:59:20;11.65;;;7.07;;
54935;SDS011;40838;50.676;7.838;2022-11-15T01:02:05;13.13;;;6.97;;
54935;SDS011;40838;50.676;7.838;2022-11-15T01:04:53;13.63;;;7.65;;
54935;SDS011;40838;50.676;7.838;2022-11-15T01:07:38;13.15;;;7.30;;
54935;SDS011;40838;50.676;7.838;2022-11-15T01:10:24;14.60;;;8.98;;
54935;SDS011;40838;50.676;7.838;2022-11-15T01:13:15;14.18;;;8.23;;
54935;SDS011;40838;50.676;7.838;2022-11-15T01:16:05;10.23;;;7.35;;
54935;SDS011;40838;50.676;7.838;2022-11-15T01:18:52;15.68;;;7.90;;
54935;SDS011;40838;50.676;7.838;2022-11-15T01:21:39;18.20;;;8.80;;
54935;SDS011;40838;50.676;7.838;2022-11-15T01:24:24;13.93;;;7.82;;
54935;SDS011;40838;50.676;7.838;2022-11-15T01:27:10;13.55;;;8.93;;
54935;SDS011;40838;50.676;7.838;2022-11-15T01:29:55;11.50;;;7.85;;
54935;SDS011;40838;50.676;7.838;2022-11-15T01:32:41;14.65;;;9.07;;
54935;SDS011;40838;50.676;7.838;2022-11-15T01:35:26;18.13;;;8.77;;
54935;SDS011;40838;50.676;7.838;2022-11-15T01:38:13;13.82;;;8.45;;
54935;SDS011;40838;50.676;7.838;2022-11-15T01:40:58;14.30;;;8.60;;
54935;SDS011;40838;50.676;7.838;2022-11-15T01:43:44;18.90;;;8.75;;
54935;SDS011;40838;50.676;7.838;2022-11-15T01:46:32;13.57;;;8.23;;
54935;SDS011;40838;50.676;7.838;2022-11-15T01:49:20;13.60;;;8.40;;
54935;SDS011;40838;50.676;7.838;2022-11-15T01:52:09;13.98;;;8.65;;
54935;SDS011;40838;50.676;7.838;2022-11-15T01:55:03;15.57;;;8.30;;
54935;SDS011;40838;50.676;7.838;2022-11-15T01:57:53;18.90;;;9.77;;
54935;SDS011;40838;50.676;7.838;2022-11-15T02:00:42;17.30;;;9.32;;
54935;SDS011;40838;50.676;7.838;2022-11-15T02:03:29;13.73;;;7.70;;
54935;SDS011;40838;50.676;7.838;2022-11-15T02:06:19;13.95;;;8.18;;
54935;SDS011;40838;50.676;7.838;2022-11-15T02:09:06;13.95;;;8.75;;
54935;SDS011;40838;50.676;7.838;2022-11-15T02:11:53;13.68;;;8.65;;
54935;SDS011;40838;50.676;7.838;2022-11-15T02:14:40;12.70;;;7.95;;
54935;SDS011;40838;50.676;7.838;2022-11-15T02:17:32;14.65;;;8.48;;
54935;SDS011;40838;50.676;7.838;2022-11-15T02:20:33;15.40;;;8.32;;
54935;SDS011;40838;50.676;7.838;2022-11-15T02:23:32;14.18;;;8.30;;
54935;SDS011;40838;50.676;7.838;2022-11-15T02:30:25;12.18;;;8.07;;
54935;SDS011;40838;50.676;7.838;2022-11-15T02:33:22;12.70;;;7.90;;
54935;SDS011;40838;50.676;7.838;2022-11-15T02:36:14;15.65;;;9.05;;
54935;SDS011;40838;50.676;7.838;2022-11-15T02:39:08;12.82;;;8.13;;
54935;SDS011;40838;50.676;7.838;2022-11-15T02:42:00;12.95;;;7.57;;
54935;SDS011;40838;50.676;7.838;2022-11-15T02:45:09;10.68;;;7.68;;
54935;SDS011;40838;50.676;7.838;2022-11-15T02:47:59;10.10;;;7.72;;
54935;SDS011;40838;50.676;7.838;2022-11-15T02:50:47;13.32;;;8.30;;
54935;SDS011;40838;50.676;7.838;2022-11-15T02:53:33;11.68;;;7.80;;
54935;SDS011;40838;50.676;7.838;2022-11-15T02:56:19;17.88;;;8.35;;
54935;SDS011;40838;50.676;7.838;2022-11-15T02:59:08;13.23;;;8.80;;
54935;SDS011;40838;50.676;7.838;2022-11-15T03:02:25;14.63;;;8.23;;
54935;SDS011;40838;50.676;7.838;2022-11-15T03:05:24;11.55;;;7.82;;
54935;SDS011;40838;50.676;7.838;2022-11-15T03:08:16;12.88;;;7.85;;
54935;SDS011;40838;50.676;7.838;2022-11-15T03:11:08;10.57;;;7.25;;
54935;SDS011;40838;50.676;7.838;2022-11-15T03:13:57;15.50;;;8.52;;
54935;SDS011;40838;50.676;7.838;2022-11-15T03:16:47;11.23;;;8.15;;
54935;SDS011;40838;50.676;7.838;2022-11-15T03:19:35;13.20;;;7.60;;
54935;SDS011;40838;50.676;7.838;2022-11-15T03:22:30;11.90;;;7.60;;
54935;SDS011;40838;50.676;7.838;2022-11-15T03:25:20;14.15;;;7.55;;
54935;SDS011;40838;50.676;7.838;2022-11-15T03:28:09;13.68;;;8.18;;
54935;SDS011;40838;50.676;7.838;2022-11-15T03:30:58;11.82;;;7.93;;
54935;SDS011;40838;50.676;7.838;2022-11-15T03:33:45;18.65;;;8.30;;
54935;SDS011;40838;50.676;7.838;2022-11-15T03:36:31;16.67;;;8.90;;
54935;SDS011;40838;50.676;7.838;2022-11-15T03:39:21;13.68;;;8.57;;
54935;SDS011;40838;50.676;7.838;2022-11-15T03:42:11;16.45;;;8.20;;
54935;SDS011;40838;50.676;7.838;2022-11-15T03:45:07;15.02;;;8.70;;
54935;SDS011;40838;50.676;7.838;2022-11-15T03:47:59;14.85;;;9.15;;
54935;SDS011;40838;50.676;7.838;2022-11-15T03:50:51;14.90;;;8.32;;
54935;SDS011;40838;50.676;7.838;2022-11-15T03:53:37;16.05;;;8.70;;
54935;SDS011;40838;50.676;7.838;2022-11-15T03:56:24;15.63;;;9.05;;
54935;SDS011;40838;50.676;7.838;2022-11-15T03:59:09;16.52;;;9.65;;
54935;SDS011;40838;50.676;7.838;2022-11-15T04:01:54;16.30;;;9.73;;
54935;SDS011;40838;50.676;7.838;2022-11-15T04:04:40;16.33;;;10.15;;
54935;SDS011;40838;50.676;7.838;2022-11-15T04:07:25;15.70;;;9.20;;
54935;SDS011;40838;50.676;7.838;2022-11-15T04:10:11;16.88;;;10.15;;
54935;SDS011;40838;50.676;7.838;2022-11-15T04:12:59;17.92;;;11.02;;
54935;SDS011;40838;50.676;7.838;2022-11-15T04:15:45;13.68;;;8.90;;
54935;SDS011;40838;50.676;7.838;2022-11-15T04:18:30;16.02;;;10.00;;
54935;SDS011;40838;50.676;7.838;2022-11-15T04:21:16;16.65;;;11.05;;
54935;SDS011;40838;50.676;7.838;2022-11-15T04:24:19;15.73;;;10.95;;
54935;SDS011;40838;50.676;7.838;2022-11-15T04:27:04;20.08;;;11.48;;
54935;SDS011;40838;50.676;7.838;2022-11-15T04:29:51;16.05;;;10.77;;
54935;SDS011;40838;50.676;7.838;2022-11-15T04:32:36;19.40;;;11.13;;
54935;SDS011;40838;50.676;7.838;2022-11-15T04:35:22;17.55;;;11.23;;
54935;SDS011;40838;50.676;7.838;2022-11-15T04:38:08;16.80;;;11.18;;
54935;SDS011;40838;50.676;7.838;2022-11-15T04:40:55;26.40;;;11.98;;
54935;SDS011;40838;50.676;7.838;2022-11-15T04:43:40;19.17;;;11.48;;
54935;SDS011;40838;50.676;7.838;2022-11-15T04:46:27;16.10;;;10.57;;
54935;SDS011;40838;50.676;7.838;2022-11-15T04:49:13;16.27;;;10.05;;
54935;SDS011;40838;50.676;7.838;2022-11-15T04:51:59;16.63;;;9.48;;
54935;SDS011;40838;50.676;7.838;2022-11-15T04:54:44;13.73;;;9.60;;
54935;SDS011;40838;50.676;7.838;2022-11-15T04:57:29;17.00;;;9.48;;
54935;SDS011;40838;50.676;7.838;2022-11-15T05:00:15;15.93;;;9.35;;
54935;SDS011;40838;50.676;7.838;2022-11-15T05:03:03;13.23;;;9.73;;
54935;SDS011;40838;50.676;7.838;2022-11-15T05:06:06;14.73;;;9.52;;
54935;SDS011;40838;50.676;7.838;2022-11-15T05:08:52;14.45;;;8.20;;
54935;SDS011;40838;50.676;7.838;2022-11-15T05:11:38;13.52;;;8.43;;
54935;SDS011;40838;50.676;7.838;2022-11-15T05:14:24;16.27;;;8.70;;
54935;SDS011;40838;50.676;7.838;2022-11-15T05:17:09;13.30;;;7.93;;
54935;SDS011;40838;50.676;7.838;2022-11-15T05:19:56;11.88;;;7.72;;
54935;SDS011;40838;50.676;7.838;2022-11-15T05:22:41;11.32;;;8.00;;
54935;SDS011;40838;50.676;7.838;2022-11-15T05:25:27;9.82;;;7.22;;
54935;SDS011;40838;50.676;7.838;2022-11-15T05:28:13;8.60;;;6.53;;
54935;SDS011;40838;50.676;7.838;2022-11-15T05:31:00;13.27;;;7.35;;
54935;SDS011;40838;50.676;7.838;2022-11-15T05:33:46;8.98;;;6.65;;
54935;SDS011;40838;50.676;7.838;2022-11-15T05:36:35;12.23;;;6.60;;
54935;SDS011;40838;50.676;7.838;2022-11-15T05:39:21;9.52;;;6.05;;
54935;SDS011;40838;50.676;7.838;2022-11-15T05:42:07;9.93;;;5.97;;
54935;SDS011;40838;50.676;7.838;2022-11-15T05:44:55;8.45;;;5.93;;
54935;SDS011;40838;50.676;7.838;2022-11-15T05:47:43;10.07;;;6.15;;
54935;SDS011;40838;50.676;7.838;2022-11-15T05:50:30;13.35;;;6.78;;
54935;SDS011;40838;50.676;7.838;2022-11-15T05:53:17;11.82;;;6.25;;
54935;SDS011;40838;50.676;7.838;2022-11-15T05:56:06;10.20;;;6.03;;
54935;SDS011;40838;50.676;7.838;2022-11-15T05:58:54;9.50;;;6.38;;
54935;SDS011;40838;50.676;7.838;2022-11-15T06:01:41;8.38;;;5.30;;
54935;SDS011;40838;50.676;7.838;2022-11-15T06:04:27;8.57;;;5.40;;
54935;SDS011;40838;50.676;7.838;2022-11-15T06:07:13;10.25;;;5.38;;
54935;SDS011;40838;50.676;7.838;2022-11-15T06:10:00;6.97;;;4.80;;
54935;SDS011;40838;50.676;7.838;2022-11-15T06:12:45;10.30;;;5.57;;
54935;SDS011;40838;50.676;7.838;2022-11-15T06:15:31;9.48;;;5.22;;
54935;SDS011;40838;50.676;7.838;2022-11-15T06:18:18;8.75;;;4.78;;
54935;SDS011;40838;50.676;7.838;2022-11-15T06:21:03;9.68;;;5.05;;
54935;SDS011;40838;50.676;7.838;2022-11-15T06:23:50;9.25;;;5.47;;
54935;SDS011;40838;50.676;7.838;2022-11-15T06:26:36;6.45;;;4.90;;
54935;SDS011;40838;50.676;7.838;2022-11-15T06:29:22;7.47;;;5.10;;
54935;SDS011;40838;50.676;7.838;2022-11-15T06:32:07;9.98;;;5.03;;
54935;SDS011;40838;50.676;7.838;2022-11-15T06:34:53;7.20;;;5.43;;
54935;SDS011;40838;50.676;7.838;2022-11-15T06:37:38;7.85;;;5.20;;
54935;SDS011;40838;50.676;7.838;2022-11-15T06:40:24;6.03;;;4.40;;
54935;SDS011;40838;50.676;7.838;2022-11-15T06:43:10;7.57;;;5.03;;
54935;SDS011;40838;50.676;7.838;2022-11-15T06:45:57;8.77;;;5.05;;
54935;SDS011;40838;50.676;7.838;2022-11-15T06:48:43;9.70;;;5.30;;
54935;SDS011;40838;50.676;7.838;2022-11-15T06:51:28;9.50;;;6.03;;
54935;SDS011;40838;50.676;7.838;2022-11-15T06:54:13;8.25;;;6.03;;
54935;SDS011;40838;50.676;7.838;2022-11-15T06:56:59;12.52;;;6.88;;
54935;SDS011;40838;50.676;7.838;2022-11-15T06:59:45;11.10;;;6.72;;
54935;SDS011;40838;50.676;7.838;2022-11-15T07:02:31;9.73;;;6.03;;
54935;SDS011;40838;50.676;7.838;2022-11-15T07:05:17;7.65;;;5.53;;
54935;SDS011;40838;50.676;7.838;2022-11-15T07:08:02;11.90;;;5.78;;
54935;SDS011;40838;50.676;7.838;2022-11-15T07:10:49;12.15;;;6.47;;
54935;SDS011;40838;50.676;7.838;2022-11-15T07:13:35;8.40;;;5.50;;
54935;SDS011;40838;50.676;7.838;2022-11-15T07:16:22;12.05;;;6.43;;
54935;SDS011;40838;50.676;7.838;2022-11-15T07:19:08;14.35;;;7.38;;
54935;SDS011;40838;50.676;7.838;2022-11-15T07:21:53;11.63;;;6.13;;
54935;SDS011;40838;50.676;7.838;2022-11-15T07:24:39;10.52;;;5.88;;
54935;SDS011;40838;50.676;7.838;2022-11-15T07:27:24;9.35;;;5.55;;
54935;SDS011;40838;50.676;7.838;2022-11-15T07:30:11;9.25;;;6.00;;
54935;SDS011;40838;50.676;7.838;2022-11-15T07:32:59;9.93;;;6.35;;
54935;SDS011;40838;50.676;7.838;2022-11-15T07:35:45;9.40;;;5.47;;
54935;SDS011;40838;50.676;7.838;2022-11-15T07:38:33;7.45;;;5.68;;
54935;SDS011;40838;50.676;7.838;2022-11-15T07:41:20;9.75;;;5.93;;
54935;SDS011;40838;50.676;7.838;2022-11-15T07:44:05;18.65;;;5.57;;
54935;SDS011;40838;50.676;7.838;2022-11-15T07:46:51;8.50;;;5.93;;
54935;SDS011;40838;50.676;7.838;2022-11-15T07:49:38;7.63;;;5.30;;
54935;SDS011;40838;50.676;7.838;2022-11-15T07:52:24;12.63;;;5.10;;
54935;SDS011;40838;50.676;7.838;2022-11-15T07:55:09;8.07;;;5.07;;
54935;SDS011;40838;50.676;7.838;2022-11-15T07:57:59;6.38;;;4.32;;
54935;SDS011;40838;50.676;7.838;2022-11-15T08:00:46;7.25;;;4.03;;
54935;SDS011;40838;50.676;7.838;2022-11-15T08:03:31;6.43;;;4.90;;
54935;SDS011;40838;50.676;7.838;2022-11-15T08:06:19;10.20;;;4.38;;
54935;SDS011;40838;50.676;7.838;2022-11-15T08:09:04;5.43;;;4.20;;
54935;SDS011;40838;50.676;7.838;2022-11-15T08:11:50;8.10;;;4.50;;
54935;SDS011;40838;50.676;7.838;2022-11-15T08:14:35;5.30;;;4.05;;
54935;SDS011;40838;50.676;7.838;2022-11-15T08:17:21;7.20;;;4.05;;
54935;SDS011;40838;50.676;7.838;2022-11-15T08:20:07;8.13;;;4.45;;
54935;SDS011;40838;50.676;7.838;2022-11-15T08:22:55;5.70;;;3.38;;
54935;SDS011;40838;50.676;7.838;2022-11-15T08:25:40;6.00;;;3.53;;
54935;SDS011;40838;50.676;7.838;2022-11-15T08:28:26;6.05;;;3.38;;
54935;SDS011;40838;50.676;7.838;2022-11-15T08:31:12;6.68;;;3.33;;
54935;SDS011;40838;50.676;7.838;2022-11-15T08:34:00;6.05;;;3.33;;
54935;SDS011;40838;50.676;7.838;2022-11-15T08:36:46;6.15;;;3.42;;
54935;SDS011;40838;50.676;7.838;2022-11-15T08:39:33;7.43;;;3.53;;
54935;SDS011;40838;50.676;7.838;2022-11-15T08:42:20;5.32;;;3.25;;
54935;SDS011;40838;50.676;7.838;2022-11-15T08:45:05;3.67;;;3.08;;
54935;SDS011;40838;50.676;7.838;2022-11-15T08:47:52;5.47;;;3.50;;
54935;SDS011;40838;50.676;7.838;2022-11-15T08:50:37;6.03;;;3.20;;
54935;SDS011;40838;50.676;7.838;2022-11-15T08:53:23;3.90;;;3.15;;
54935;SDS011;40838;50.676;7.838;2022-11-15T08:56:10;5.93;;;2.90;;
54935;SDS011;40838;50.676;7.838;2022-11-15T08:59:00;3.70;;;3.17;;
54935;SDS011;40838;50.676;7.838;2022-11-15T09:01:49;4.88;;;3.33;;
54935;SDS011;40838;50.676;7.838;2022-11-15T09:04:35;4.75;;;3.50;;
54935;SDS011;40838;50.676;7.838;2022-11-15T09:07:20;4.47;;;3.20;;
54935;SDS011;40838;50.676;7.838;2022-11-15T09:10:06;7.28;;;3.40;;
54935;SDS011;40838;50.676;7.838;2022-11-15T09:12:56;6.03;;;3.58;;
54935;SDS011;40838;50.676;7.838;2022-11-15T09:15:41;4.88;;;3.60;;
54935;SDS011;40838;50.676;7.838;2022-11-15T09:18:27;5.28;;;3.30;;
54935;SDS011;40838;50.676;7.838;2022-11-15T09:21:13;6.55;;;3.88;;
54935;SDS011;40838;50.676;7.838;2022-11-15T09:23:59;5.60;;;3.85;;
54935;SDS011;40838;50.676;7.838;2022-11-15T09:26:46;4.82;;;3.40;;
54935;SDS011;40838;50.676;7.838;2022-11-15T09:29:39;5.78;;;3.28;;
54935;SDS011;40838;50.676;7.838;2022-11-15T09:32:27;5.35;;;4.10;;
54935;SDS011;40838;50.676;7.838;2022-11-15T09:35:14;8.13;;;3.85;;
54935;SDS011;40838;50.676;7.838;2022-11-15T09:38:00;4.22;;;3.30;;
54935;SDS011;40838;50.676;7.838;2022-11-15T09:40:46;8.45;;;3.58;;
54935;SDS011;40838;50.676;7.838;2022-11-15T09:43:42;3.72;;;3.00;;
54935;SDS011;40838;50.676;7.838;2022-11-15T09:49:50;5.60;;;3.17;;
54935;SDS011;40838;50.676;7.838;2022-11-15T09:52:25;5.15;;;3.30;;
54935;SDS011;40838;50.676;7.838;2022-11-15T09:54:55;4.05;;;3.13;;
54935;SDS011;40838;50.676;7.838;2022-11-15T09:57:24;5.30;;;3.33;;
54935;SDS011;40838;50.676;7.838;2022-11-15T10:00:07;6.32;;;3.28;;
54935;SDS011;40838;50.676;7.838;2022-11-15T10:02:46;4.68;;;3.15;;
54935;SDS011;40838;50.676;7.838;2022-11-15T10:05:23;4.82;;;3.08;;
54935;SDS011;40838;50.676;7.838;2022-11-15T10:07:54;6.00;;;2.80;;
54935;SDS011;40838;50.676;7.838;2022-11-15T10:10:29;4.25;;;2.55;;
54935;SDS011;40838;50.676;7.838;2022-11-15T10:13:02;5.57;;;3.25;;
54935;SDS011;40838;50.676;7.838;2022-11-15T10:15:30;4.18;;;2.90;;
54935;SDS011;40838;50.676;7.838;2022-11-15T10:20:56;5.03;;;3.63;;
54935;SDS011;40838;50.676;7.838;2022-11-15T10:23:25;6.72;;;3.22;;
54935;SDS011;40838;50.676;7.838;2022-11-15T10:25:54;6.28;;;3.30;;
54935;SDS011;40838;50.676;7.838;2022-11-15T10:28:25;4.57;;;3.00;;
54935;SDS011;40838;50.676;7.838;2022-11-15T10:30:56;3.38;;;2.72;;
54935;SDS011;40838;50.676;7.838;2022-11-15T10:33:32;4.20;;;3.15;;
54935;SDS011;40838;50.676;7.838;2022-11-15T10:36:15;4.80;;;3.05;;
54935;SDS011;40838;50.676;7.838;2022-11-15T10:38:51;5.53;;;2.88;;
54935;SDS011;40838;50.676;7.838;2022-11-15T10:41:27;5.40;;;3.72;;
54935;SDS011;40838;50.676;7.838;2022-11-15T10:44:17;4.40;;;3.40;;
54935;SDS011;40838;50.676;7.838;2022-11-15T10:49:56;5.60;;;3.28;;
54935;SDS011;40838;50.676;7.838;2022-11-15T10:52:25;3.33;;;3.00;;
54935;SDS011;40838;50.676;7.838;2022-11-15T10:54:54;5.55;;;3.20;;
54935;SDS011;40838;50.676;7.838;2022-11-15T10:57:25;9.95;;;3.47;;
54935;SDS011;40838;50.676;7.838;2022-11-15T10:59:54;3.60;;;2.88;;
54935;SDS011;40838;50.676;7.838;2022-11-15T11:02:27;6.57;;;3.25;;
54935;SDS011;40838;50.676;7.838;2022-11-15T11:05:00;4.75;;;3.00;;
54935;SDS011;40838;50.676;7.838;2022-11-15T11:07:29;5.07;;;3.50;;
54935;SDS011;40838;50.676;7.838;2022-11-15T11:09:58;3.80;;;3.17;;
54935;SDS011;40838;50.676;7.838;2022-11-15T11:12:29;4.80;;;3.58;;
54935;SDS011;40838;50.676;7.838;2022-11-15T11:14:58;5.07;;;3.50;;
54935;SDS011;40838;50.676;7.838;2022-11-15T11:17:30;6.35;;;3.55;;
54935;SDS011;40838;50.676;7.838;2022-11-15T11:20:14;5.43;;;3.13;;
54935;SDS011;40838;50.676;7.838;2022-11-15T11:22:53;4.32;;;2.55;;
54935;SDS011;40838;50.676;7.838;2022-11-15T11:25:34;6.30;;;3.30;;
54935;SDS011;40838;50.676;7.838;2022-11-15T11:28:20;5.43;;;2.83;;
54935;SDS011;40838;50.676;7.838;2022-11-15T11:31:00;4.78;;;2.70;;
54935;SDS011;40838;50.676;7.838;2022-11-15T11:33:42;6.20;;;2.70;;
54935;SDS011;40838;50.676;7.838;2022-11-15T11:36:19;5.68;;;2.90;;
54935;SDS011;40838;50.676;7.838;2022-11-15T11:39:02;4.25;;;2.47;;
54935;SDS011;40838;50.676;7.838;2022-11-15T11:41:46;5.10;;;2.65;;
54935;SDS011;40838;50.676;7.838;2022-11-15T11:44:24;5.80;;;2.33;;
54935;SDS011;40838;50.676;7.838;2022-11-15T11:46:59;7.78;;;2.70;;
54935;SDS011;40838;50.676;7.838;2022-11-15T11:49:34;5.93;;;2.47;;
54935;SDS011;40838;50.676;7.838;2022-11-15T11:52:10;2.80;;;2.10;;
54935;SDS011;40838;50.676;7.838;2022-11-15T11:54:48;3.83;;;2.40;;
54935;SDS011;40838;50.676;7.838;2022-11-15T11:57:27;4.82;;;2.20;;
54935;SDS011;40838;50.676;7.838;2022-11-15T12:00:01;6.88;;;1.83;;
54935;SDS011;40838;50.676;7.838;2022-11-15T12:02:38;2.55;;;1.80;;
54935;SDS011;40838;50.676;7.838;2022-11-15T12:05:10;7.68;;;2.20;;
54935;SDS011;40838;50.676;7.838;2022-11-15T12:07:41;6.70;;;1.90;;
54935;SDS011;40838;50.676;7.838;2022-11-15T12:10:15;4.82;;;2.00;;
54935;SDS011;40838;50.676;7.838;2022-11-15T12:12:50;2.30;;;1.63;;
54935;SDS011;40838;50.676;7.838;2022-11-15T12:15:23;3.85;;;2.03;;
54935;SDS011;40838;50.676;7.838;2022-11-15T12:17:53;1.85;;;1.65;;
54935;SDS011;40838;50.676;7.838;2022-11-15T12:20:22;2.03;;;1.50;;
54935;SDS011;40838;50.676;7.838;2022-11-15T12:22:54;2.78;;;1.70;;
54935;SDS011;40838;50.676;7.838;2022-11-15T12:25:25;4.22;;;1.52;;
54935;SDS011;40838;50.676;7.838;2022-11-15T12:27:59;2.08;;;1.52;;
54935;SDS011;40838;50.676;7.838;2022-11-15T12:30:39;2.08;;;1.88;;
54935;SDS011;40838;50.676;7.838;2022-11-15T12:35:57;2.67;;;1.63;;
54935;SDS011;40838;50.676;7.838;2022-11-15T12:41:24;4.65;;;1.92;;
54935;SDS011;40838;50.676;7.838;2022-11-15T12:43:52;2.50;;;1.90;;
54935;SDS011;40838;50.676;7.838;2022-11-15T12:46:21;2.72;;;1.98;;
54935;SDS011;40838;50.676;7.838;2022-11-15T12:48:52;4.65;;;1.67;;
54935;SDS011;40838;50.676;7.838;2022-11-15T12:51:21;4.50;;;2.00;;
54935;SDS011;40838;50.676;7.838;2022-11-15T12:57:26;4.78;;;1.67;;
54935;SDS011;40838;50.676;7.838;2022-11-15T12:59:57;5.93;;;2.20;;
54935;SDS011;40838;50.676;7.838;2022-11-15T13:02:28;4.35;;;1.67;;
54935;SDS011;40838;50.676;7.838;2022-11-15T13:08:10;2.78;;;1.80;;
54935;SDS011;40838;50.676;7.838;2022-11-15T13:17:35;2.80;;;2.08;;
54935;SDS011;40838;50.676;7.838;2022-11-15T13:23:00;3.58;;;1.88;;
54935;SDS011;40838;50.676;7.838;2022-11-15T13:28:28;2.50;;;1.90;;
54935;SDS011;40838;50.676;7.838;2022-11-15T13:31:00;3.03;;;1.70;;
54935;SDS011;40838;50.676;7.838;2022-11-15T13:33:31;5.57;;;2.03;;
54935;SDS011;40838;50.676;7.838;2022-11-15T13:36:01;4.05;;;2.05;;
54935;SDS011;40838;50.676;7.838;2022-11-15T13:38:32;10.48;;;3.83;;
54935;SDS011;40838;50.676;7.838;2022-11-15T13:41:10;2.55;;;1.60;;
54935;SDS011;40838;50.676;7.838;2022-11-15T13:43:43;2.63;;;1.95;;
54935;SDS011;40838;50.676;7.838;2022-11-15T13:46:11;3.05;;;1.92;;
54935;SDS011;40838;50.676;7.838;2022-11-15T13:48:41;2.72;;;2.22;;
54935;SDS011;40838;50.676;7.838;2022-11-15T13:51:10;5.30;;;2.42;;
54935;SDS011;40838;50.676;7.838;2022-11-15T13:53:46;2.42;;;1.92;;
54935;SDS011;40838;50.676;7.838;2022-11-15T13:56:16;2.38;;;2.03;;
54935;SDS011;40838;50.676;7.838;2022-11-15T13:58:45;3.80;;;1.98;;
54935;SDS011;40838;50.676;7.838;2022-11-15T14:01:14;7.30;;;2.00;;
54935;SDS011;40838;50.676;7.838;2022-11-15T14:03:51;2.90;;;1.77;;
54935;SDS011;40838;50.676;7.838;2022-11-15T14:06:23;2.85;;;1.80;;
54935;SDS011;40838;50.676;7.838;2022-11-15T14:11:51;4.72;;;2.10;;
54935;SDS011;40838;50.676;7.838;2022-11-15T14:14:19;6.40;;;2.10;;
54935;SDS011;40838;50.676;7.838;2022-11-15T14:16:48;14.43;;;6.63;;
54935;SDS011;40838;50.676;7.838;2022-11-15T14:19:35;11.60;;;6.20;;
54935;SDS011;40838;50.676;7.838;2022-11-15T14:22:07;3.33;;;2.20;;
54935;SDS011;40838;50.676;7.838;2022-11-15T14:24:35;6.03;;;2.92;;
54935;SDS011;40838;50.676;7.838;2022-11-15T14:27:15;6.13;;;3.05;;
54935;SDS011;40838;50.676;7.838;2022-11-15T14:29:47;7.95;;;4.18;;
54935;SDS011;40838;50.676;7.838;2022-11-15T14:32:15;8.43;;;4.55;;
54935;SDS011;40838;50.676;7.838;2022-11-15T14:34:45;11.77;;;5.22;;
54935;SDS011;40838;50.676;7.838;2022-11-15T14:37:17;7.07;;;2.50;;
54935;SDS011;40838;50.676;7.838;2022-11-15T14:39:48;3.67;;;2.25;;
54935;SDS011;40838;50.676;7.838;2022-11-15T14:42:16;4.53;;;2.50;;
54935;SDS011;40838;50.676;7.838;2022-11-15T14:44:43;6.28;;;3.70;;
54935;SDS011;40838;50.676;7.838;2022-11-15T14:47:10;6.13;;;3.63;;
54935;SDS011;40838;50.676;7.838;2022-11-15T14:49:37;10.40;;;3.20;;
54935;SDS011;40838;50.676;7.838;2022-11-15T14:52:10;13.65;;;5.68;;
54935;SDS011;40838;50.676;7.838;2022-11-15T14:54:49;7.05;;;3.60;;
54935;SDS011;40838;50.676;7.838;2022-11-15T14:57:16;8.75;;;4.50;;
54935;SDS011;40838;50.676;7.838;2022-11-15T14:59:44;5.28;;;3.58;;
54935;SDS011;40838;50.676;7.838;2022-11-15T15:02:13;5.57;;;3.83;;
54935;SDS011;40838;50.676;7.838;2022-11-15T15:04:43;4.25;;;2.80;;
54935;SDS011;40838;50.676;7.838;2022-11-15T15:07:11;6.80;;;3.47;;
54935;SDS011;40838;50.676;7.838;2022-11-15T15:09:39;5.32;;;3.85;;
54935;SDS011;40838;50.676;7.838;2022-11-15T15:12:09;5.22;;;3.90;;
54935;SDS011;40838;50.676;7.838;2022-11-15T15:14:43;4.82;;;3.60;;
54935;SDS011;40838;50.676;7.838;2022-11-15T15:17:11;5.88;;;4.30;;
54935;SDS011;40838;50.676;7.838;2022-11-15T15:19:37;8.05;;;3.90;;
54935;SDS011;40838;50.676;7.838;2022-11-15T15:22:05;8.05;;;4.38;;
54935;SDS011;40838;50.676;7.838;2022-11-15T15:24:33;5.43;;;3.50;;
54935;SDS011;40838;50.676;7.838;2022-11-15T15:27:00;5.78;;;3.75;;
54935;SDS011;40838;50.676;7.838;2022-11-15T15:29:27;7.72;;;3.40;;
54935;SDS011;40838;50.676;7.838;2022-11-15T15:31:55;5.30;;;3.80;;
54935;SDS011;40838;50.676;7.838;2022-11-15T15:34:22;4.93;;;3.22;;
54935;SDS011;40838;50.676;7.838;2022-11-15T15:36:49;9.35;;;4.13;;
54935;SDS011;40838;50.676;7.838;2022-11-15T15:39:16;6.22;;;4.28;;
54935;SDS011;40838;50.676;7.838;2022-11-15T15:41:44;5.15;;;4.20;;
54935;SDS011;40838;50.676;7.838;2022-11-15T15:44:11;5.25;;;3.95;;
54935;SDS011;40838;50.676;7.838;2022-11-15T15:46:38;10.23;;;6.00;;
54935;SDS011;40838;50.676;7.838;2022-11-15T15:49:04;6.13;;;4.72;;
54935;SDS011;40838;50.676;7.838;2022-11-15T15:51:33;6.88;;;3.58;;
54935;SDS011;40838;50.676;7.838;2022-11-15T15:54:00;7.85;;;5.38;;
54935;SDS011;40838;50.676;7.838;2022-11-15T15:56:27;6.72;;;4.57;;
54935;SDS011;40838;50.676;7.838;2022-11-15T15:58:55;8.20;;;5.03;;
54935;SDS011;40838;50.676;7.838;2022-11-15T16:01:22;6.50;;;4.47;;
54935;SDS011;40838;50.676;7.838;2022-11-15T16:03:49;4.40;;;3.33;;
54935;SDS011;40838;50.676;7.838;2022-11-15T16:06:25;5.32;;;3.95;;
54935;SDS011;40838;50.676;7.838;2022-11-15T16:09:00;5.60;;;4.07;;
54935;SDS011;40838;50.676;7.838;2022-11-15T16:11:27;8.48;;;4.53;;
54935;SDS011;40838;50.676;7.838;2022-11-15T16:13:55;5.43;;;4.57;;
54935;SDS011;40838;50.676;7.838;2022-11-15T16:16:22;9.65;;;4.63;;
54935;SDS011;40838;50.676;7.838;2022-11-15T16:18:49;6.28;;;3.60;;
54935;SDS011;40838;50.676;7.838;2022-11-15T16:21:16;5.65;;;3.97;;
54935;SDS011;40838;50.676;7.838;2022-11-15T16:23:43;5.75;;;3.47;;
54935;SDS011;40838;50.676;7.838;2022-11-15T16:26:13;7.15;;;4.40;;
54935;SDS011;40838;50.676;7.838;2022-11-15T16:28:45;4.63;;;3.42;;
54935;SDS011;40838;50.676;7.838;2022-11-15T16:31:13;11.48;;;3.70;;
54935;SDS011;40838;50.676;7.838;2022-11-15T16:33:43;5.90;;;4.22;;
54935;SDS011;40838;50.676;7.838;2022-11-15T16:36:14;6.15;;;3.95;;
54935;SDS011;40838;50.676;7.838;2022-11-15T16:38:47;6.85;;;4.63;;
54935;SDS011;40838;50.676;7.838;2022-11-15T16:41:15;4.95;;;4.20;;
54935;SDS011;40838;50.676;7.838;2022-11-15T16:43:43;7.20;;;4.18;;
54935;SDS011;40838;50.676;7.838;2022-11-15T16:46:14;7.22;;;4.72;;